sensor_id;sensor_type;location;lat;lon;timestamp;pressure;altitude;pressure_sealevel;temperature;humidity
23363;BME280;11853;48.080;11.960;2023-02-17T00:00:09;95671.56;;;9.86;49.93
23363;BME280;11853;48.080;11.960;2023-02-17T00:02:36;95670.72;;;9.86;49.87
23363;BME280;11853;48.080;11.960;2023-02-17T00:05:03;95668.06;;;9.86;49.50
23363;BME280;11853;48.080;11.960;2023-02-17T00:07:30;95669.88;;;9.85;49.64
23363;BME280;11853;48.080;11.960;2023-02-17T00:09:57;95666.50;;;9.83;50.05
23363;BME280;11853;48.080;11.960;2023-02-17T00:12:22;95661.09;;;9.85;50.55
23363;BME280;11853;48.080;11.960;2023-02-17T00:14:48;95662.78;;;9.86;50.55
23363;BME280;11853;48.080;11.960;2023-02-17T00:17:14;95667.25;;;9.85;50.61
23363;BME280;11853;48.080;11.960;2023-02-17T00:19:39;95668.91;;;9.86;51.22
23363;BME280;11853;48.080;11.960;2023-02-17T00:22:05;95666.41;;;9.85;50.66
23363;BME280;11853;48.080;11.960;2023-02-17T00:24:31;95662.91;;;9.84;50.52
23363;BME280;11853;48.080;11.960;2023-02-17T00:26:57;95662.78;;;9.86;50.53
23363;BME280;11853;48.080;11.960;2023-02-17T00:29:23;95665.56;;;9.84;50.93
23363;BME280;11853;48.080;11.960;2023-02-17T00:31:51;95664.69;;;9.84;51.16
23363;BME280;11853;48.080;11.960;2023-02-17T00:34:17;95665.31;;;9.87;51.00
23363;BME280;11853;48.080;11.960;2023-02-17T00:36:42;95668.06;;;9.86;51.60
23363;BME280;11853;48.080;11.960;2023-02-17T00:39:08;95666.16;;;9.88;51.73
23363;BME280;11853;48.080;11.960;2023-02-17T00:41:34;95655.53;;;9.88;51.31
23363;BME280;11853;48.080;11.960;2023-02-17T00:43:59;95651.91;;;9.89;51.32
23363;BME280;11853;48.080;11.960;2023-02-17T00:46:25;95652.75;;;9.89;51.22
23363;BME280;11853;48.080;11.960;2023-02-17T00:48:51;95658.19;;;9.88;50.45
23363;BME280;11853;48.080;11.960;2023-02-17T00:51:17;95651.91;;;9.89;51.20
23363;BME280;11853;48.080;11.960;2023-02-17T00:53:44;95650.09;;;9.89;50.80
23363;BME280;11853;48.080;11.960;2023-02-17T00:56:09;95656.38;;;9.88;50.25
23363;BME280;11853;48.080;11.960;2023-02-17T00:58:35;95644.94;;;9.88;49.88
23363;BME280;11853;48.080;11.960;2023-02-17T01:01:01;95645.63;;;9.90;49.95
23363;BME280;11853;48.080;11.960;2023-02-17T01:03:27;95637.56;;;9.91;49.88
23363;BME280;11853;48.080;11.960;2023-02-17T01:05:54;95649.41;;;9.87;50.28
23363;BME280;11853;48.080;11.960;2023-02-17T01:08:20;95640.34;;;9.90;50.79
23363;BME280;11853;48.080;11.960;2023-02-17T01:10:47;95649.25;;;9.89;50.16
23363;BME280;11853;48.080;11.960;2023-02-17T01:13:14;95643.97;;;9.89;50.73
23363;BME280;11853;48.080;11.960;2023-02-17T01:15:42;95637.25;;;9.85;50.99
23363;BME280;11853;48.080;11.960;2023-02-17T01:18:08;95642.56;;;9.85;50.03
23363;BME280;11853;48.080;11.960;2023-02-17T01:20:35;95639.19;;;9.83;49.95
23363;BME280;11853;48.080;11.960;2023-02-17T01:23:01;95642.56;;;9.85;49.91
23363;BME280;11853;48.080;11.960;2023-02-17T01:25:27;95639.91;;;9.85;50.64
23363;BME280;11853;48.080;11.960;2023-02-17T01:27:53;95634.84;;;9.82;50.58
23363;BME280;11853;48.080;11.960;2023-02-17T01:30:18;95646.41;;;9.81;50.25
23363;BME280;11853;48.080;11.960;2023-02-17T01:32:44;95634.59;;;9.85;50.68
23363;BME280;11853;48.080;11.960;2023-02-17T01:35:09;95637.69;;;9.90;50.69
23363;BME280;11853;48.080;11.960;2023-02-17T01:37:35;95630.84;;;9.87;50.30
23363;BME280;11853;48.080;11.960;2023-02-17T01:40:01;95629.72;;;9.90;49.63
23363;BME280;11853;48.080;11.960;2023-02-17T01:42:27;95631.69;;;9.88;49.76
23363;BME280;11853;48.080;11.960;2023-02-17T01:48:12;95621.66;;;9.91;49.69
23363;BME280;11853;48.080;11.960;2023-02-17T01:50:53;95626.13;;;9.91;49.93
23363;BME280;11853;48.080;11.960;2023-02-17T01:53:24;95623.75;;;9.88;50.51
23363;BME280;11853;48.080;11.960;2023-02-17T01:55:52;95616.16;;;9.83;50.58
23363;BME280;11853;48.080;11.960;2023-02-17T01:58:20;95616.06;;;9.85;50.28
23363;BME280;11853;48.080;11.960;2023-02-17T02:00:49;95609.31;;;9.81;49.87
23363;BME280;11853;48.080;11.960;2023-02-17T02:03:15;95606.91;;;9.78;49.95
23363;BME280;11853;48.080;11.960;2023-02-17T02:05:42;95614.41;;;9.73;50.23
23363;BME280;11853;48.080;11.960;2023-02-17T02:08:09;95610.03;;;9.83;49.84
23363;BME280;11853;48.080;11.960;2023-02-17T02:10:35;95613.91;;;9.79;50.32
23363;BME280;11853;48.080;11.960;2023-02-17T02:13:02;95608.72;;;9.77;50.16
23363;BME280;11853;48.080;11.960;2023-02-17T02:15:33;95619.22;;;9.79;50.62
23363;BME280;11853;48.080;11.960;2023-02-17T02:23:21;95617.41;;;9.79;50.24
23363;BME280;11853;48.080;11.960;2023-02-17T02:34:52;95621.00;;;9.78;50.42
23363;BME280;11853;48.080;11.960;2023-02-17T02:37:26;95624.13;;;9.83;50.87
23363;BME280;11853;48.080;11.960;2023-02-17T02:39:59;95629.56;;;9.82;49.93
23363;BME280;11853;48.080;11.960;2023-02-17T02:42:27;95632.47;;;9.79;50.36
23363;BME280;11853;48.080;11.960;2023-02-17T02:44:52;95618.50;;;9.77;50.20
23363;BME280;11853;48.080;11.960;2023-02-17T02:47:41;95627.59;;;9.84;50.81
23363;BME280;11853;48.080;11.960;2023-02-17T02:50:09;95617.41;;;9.79;51.00
23363;BME280;11853;48.080;11.960;2023-02-17T02:58:05;95611.13;;;9.80;50.92
23363;BME280;11853;48.080;11.960;2023-02-17T03:03:21;95612.22;;;9.78;50.65
23363;BME280;11853;48.080;11.960;2023-02-17T03:06:14;95605.00;;;9.80;50.86
23363;BME280;11853;48.080;11.960;2023-02-17T03:08:52;95608.63;;;9.79;50.28
23363;BME280;11853;48.080;11.960;2023-02-17T03:11:23;95599.22;;;9.75;51.06
23363;BME280;11853;48.080;11.960;2023-02-17T03:14:04;95595.88;;;9.73;50.40
23363;BME280;11853;48.080;11.960;2023-02-17T03:16:32;95602.97;;;9.72;50.70
23363;BME280;11853;48.080;11.960;2023-02-17T03:18:58;95598.50;;;9.73;51.01
23363;BME280;11853;48.080;11.960;2023-02-17T03:21:28;95598.66;;;9.71;50.50
23363;BME280;11853;48.080;11.960;2023-02-17T03:23:57;95597.56;;;9.74;51.24
23363;BME280;11853;48.080;11.960;2023-02-17T03:26:23;95599.13;;;9.76;51.03
23363;BME280;11853;48.080;11.960;2023-02-17T03:28:48;95592.00;;;9.77;51.96
23363;BME280;11853;48.080;11.960;2023-02-17T03:31:14;95601.88;;;9.75;51.00
23363;BME280;11853;48.080;11.960;2023-02-17T03:33:39;95585.16;;;9.74;51.91
23363;BME280;11853;48.080;11.960;2023-02-17T03:36:05;95589.72;;;9.72;51.18
23363;BME280;11853;48.080;11.960;2023-02-17T03:38:31;95581.50;;;9.75;50.90
23363;BME280;11853;48.080;11.960;2023-02-17T03:40:56;95592.94;;;9.76;51.33
23363;BME280;11853;48.080;11.960;2023-02-17T03:43:22;95586.97;;;9.74;52.25
23363;BME280;11853;48.080;11.960;2023-02-17T03:45:47;95585.16;;;9.74;52.13
23363;BME280;11853;48.080;11.960;2023-02-17T03:48:13;95582.25;;;9.77;52.19
23363;BME280;11853;48.080;11.960;2023-02-17T03:50:39;95580.56;;;9.76;51.38
23363;BME280;11853;48.080;11.960;2023-02-17T03:53:04;95576.38;;;9.74;51.95
23363;BME280;11853;48.080;11.960;2023-02-17T03:55:30;95574.81;;;9.71;52.18
23363;BME280;11853;48.080;11.960;2023-02-17T03:57:55;95575.38;;;9.75;52.24
23363;BME280;11853;48.080;11.960;2023-02-17T04:00:21;95576.47;;;9.72;52.37
23363;BME280;11853;48.080;11.960;2023-02-17T04:02:47;95573.97;;;9.70;52.71
23363;BME280;11853;48.080;11.960;2023-02-17T04:05:12;95574.34;;;9.66;52.58
23363;BME280;11853;48.080;11.960;2023-02-17T04:07:38;95578.66;;;9.67;52.90
23363;BME280;11853;48.080;11.960;2023-02-17T04:10:04;95576.88;;;9.67;52.12
23363;BME280;11853;48.080;11.960;2023-02-17T04:12:29;95586.25;;;9.72;52.32
23363;BME280;11853;48.080;11.960;2023-02-17T04:14:55;95581.78;;;9.72;52.37
23363;BME280;11853;48.080;11.960;2023-02-17T04:17:21;95582.63;;;9.73;52.16
23363;BME280;11853;48.080;11.960;2023-02-17T04:19:46;95582.63;;;9.73;51.93
23363;BME280;11853;48.080;11.960;2023-02-17T04:22:12;95579.69;;;9.76;51.81
23363;BME280;11853;48.080;11.960;2023-02-17T04:24:38;95581.50;;;9.75;51.88
23363;BME280;11853;48.080;11.960;2023-02-17T04:27:04;95582.13;;;9.79;52.08
23363;BME280;11853;48.080;11.960;2023-02-17T04:29:31;95578.03;;;9.75;52.60
23363;BME280;11853;48.080;11.960;2023-02-17T04:31:57;95570.09;;;9.75;52.39
23363;BME280;11853;48.080;11.960;2023-02-17T04:34:23;95572.63;;;9.76;52.20
23363;BME280;11853;48.080;11.960;2023-02-17T04:36:48;95568.16;;;9.77;52.37
23363;BME280;11853;48.080;11.960;2023-02-17T04:39:14;95567.06;;;9.79;52.43
23363;BME280;11853;48.080;11.960;2023-02-17T04:41:39;95563.94;;;9.74;52.45
23363;BME280;11853;48.080;11.960;2023-02-17T04:44:05;95568.72;;;9.80;52.52
23363;BME280;11853;48.080;11.960;2023-02-17T04:46:31;95567.16;;;9.78;52.24
23363;BME280;11853;48.080;11.960;2023-02-17T04:52:08;95561.63;;;9.81;52.31
23363;BME280;11853;48.080;11.960;2023-02-17T04:54:34;95562.59;;;9.80;52.49
23363;BME280;11853;48.080;11.960;2023-02-17T04:57:00;95569.56;;;9.81;52.55
23363;BME280;11853;48.080;11.960;2023-02-17T04:59:25;95561.34;;;9.84;52.16
23363;BME280;11853;48.080;11.960;2023-02-17T05:01:51;95571.84;;;9.85;51.96
23363;BME280;11853;48.080;11.960;2023-02-17T05:04:17;95562.22;;;9.84;52.91
23363;BME280;11853;48.080;11.960;2023-02-17T05:06:42;95569.56;;;9.81;52.28
23363;BME280;11853;48.080;11.960;2023-02-17T05:09:08;95563.16;;;9.83;52.79
23363;BME280;11853;48.080;11.960;2023-02-17T05:11:34;95570.16;;;9.84;52.25
23363;BME280;11853;48.080;11.960;2023-02-17T05:13:59;95549.09;;;9.83;52.61
23363;BME280;11853;48.080;11.960;2023-02-17T05:16:25;95551.47;;;9.86;51.87
23363;BME280;11853;48.080;11.960;2023-02-17T05:18:51;95550.63;;;9.85;51.90
23363;BME280;11853;48.080;11.960;2023-02-17T05:21:16;95554.84;;;9.88;52.34
23363;BME280;11853;48.080;11.960;2023-02-17T05:23:43;95545.63;;;9.92;52.05
23363;BME280;11853;48.080;11.960;2023-02-17T05:26:09;95535.88;;;9.92;51.95
23363;BME280;11853;48.080;11.960;2023-02-17T05:28:36;95543.97;;;9.91;52.14
23363;BME280;11853;48.080;11.960;2023-02-17T05:31:03;95538.78;;;9.89;52.57
23363;BME280;11853;48.080;11.960;2023-02-17T05:33:29;95533.38;;;9.91;52.61
23363;BME280;11853;48.080;11.960;2023-02-17T05:35:55;95530.16;;;9.87;52.71
23363;BME280;11853;48.080;11.960;2023-02-17T05:38:21;95533.81;;;9.96;52.40
23363;BME280;11853;48.080;11.960;2023-02-17T05:40:48;95543.56;;;9.96;52.53
23363;BME280;11853;48.080;11.960;2023-02-17T05:43:16;95543.69;;;9.94;52.41
23363;BME280;11853;48.080;11.960;2023-02-17T05:45:42;95550.16;;;10.01;52.94
23363;BME280;11853;48.080;11.960;2023-02-17T05:48:07;95554.50;;;10.02;52.54
23363;BME280;11853;48.080;11.960;2023-02-17T05:50:33;95552.94;;;10.00;52.15
23363;BME280;11853;48.080;11.960;2023-02-17T05:52:59;95549.47;;;9.99;52.11
23363;BME280;11853;48.080;11.960;2023-02-17T05:55:24;95544.41;;;9.96;52.14
23363;BME280;11853;48.080;11.960;2023-02-17T05:57:50;95552.09;;;9.99;52.92
23363;BME280;11853;48.080;11.960;2023-02-17T06:00:16;95552.78;;;10.01;52.30
23363;BME280;11853;48.080;11.960;2023-02-17T06:02:42;95557.41;;;9.99;52.92
23363;BME280;11853;48.080;11.960;2023-02-17T06:05:08;95552.38;;;9.96;52.14
23363;BME280;11853;48.080;11.960;2023-02-17T06:07:34;95551.28;;;9.99;53.01
23363;BME280;11853;48.080;11.960;2023-02-17T06:10:00;95564.38;;;10.00;52.70
23363;BME280;11853;48.080;11.960;2023-02-17T06:12:25;95559.22;;;9.99;52.34
23363;BME280;11853;48.080;11.960;2023-02-17T06:14:51;95557.53;;;9.98;52.52
23363;BME280;11853;48.080;11.960;2023-02-17T06:17:17;95558.34;;;9.98;52.61
23363;BME280;11853;48.080;11.960;2023-02-17T06:19:43;95548.47;;;10.00;52.38
23363;BME280;11853;48.080;11.960;2023-02-17T06:22:08;95551.13;;;10.00;52.95
23363;BME280;11853;48.080;11.960;2023-02-17T06:24:34;95549.31;;;10.01;52.65
23363;BME280;11853;48.080;11.960;2023-02-17T06:27:00;95555.19;;;10.04;52.88
23363;BME280;11853;48.080;11.960;2023-02-17T06:29:26;95556.88;;;10.05;52.68
23363;BME280;11853;48.080;11.960;2023-02-17T06:31:53;95559.66;;;10.04;52.33
23363;BME280;11853;48.080;11.960;2023-02-17T06:34:18;95554.50;;;10.02;52.81
23363;BME280;11853;48.080;11.960;2023-02-17T06:36:44;95557.84;;;10.04;53.39
23363;BME280;11853;48.080;11.960;2023-02-17T06:39:10;95558.44;;;10.08;53.56
23363;BME280;11853;48.080;11.960;2023-02-17T06:41:37;95560.94;;;10.09;53.21
23363;BME280;11853;48.080;11.960;2023-02-17T06:44:02;95559.72;;;10.13;53.74
23363;BME280;11853;48.080;11.960;2023-02-17T06:46:28;95572.44;;;10.20;53.04
23363;BME280;11853;48.080;11.960;2023-02-17T06:48:55;95569.91;;;10.18;53.12
23363;BME280;11853;48.080;11.960;2023-02-17T06:51:21;95575.94;;;10.20;53.23
23363;BME280;11853;48.080;11.960;2023-02-17T06:53:47;95570.00;;;10.28;53.26
23363;BME280;11853;48.080;11.960;2023-02-17T06:56:13;95568.75;;;10.32;52.96
23363;BME280;11853;48.080;11.960;2023-02-17T06:58:38;95575.31;;;10.28;53.84
23363;BME280;11853;48.080;11.960;2023-02-17T07:01:04;95573.94;;;10.33;52.64
23363;BME280;11853;48.080;11.960;2023-02-17T07:03:31;95573.78;;;10.35;54.51
23363;BME280;11853;48.080;11.960;2023-02-17T07:05:57;95575.59;;;10.34;55.86
23363;BME280;11853;48.080;11.960;2023-02-17T07:08:23;95575.03;;;10.31;57.71
23363;BME280;11853;48.080;11.960;2023-02-17T07:10:49;95570.69;;;10.30;59.32
23363;BME280;11853;48.080;11.960;2023-02-17T07:13:15;95570.69;;;10.30;60.29
23363;BME280;11853;48.080;11.960;2023-02-17T07:15:40;95571.28;;;10.33;61.54
23363;BME280;11853;48.080;11.960;2023-02-17T07:18:06;95570.28;;;10.34;62.37
23363;BME280;11853;48.080;11.960;2023-02-17T07:20:32;95569.00;;;10.29;63.99
23363;BME280;11853;48.080;11.960;2023-02-17T07:22:59;95571.19;;;10.24;64.27
23363;BME280;11853;48.080;11.960;2023-02-17T07:25:25;95569.53;;;10.23;68.32
23363;BME280;11853;48.080;11.960;2023-02-17T07:27:51;95575.69;;;11.14;90.37
23363;BME280;11853;48.080;11.960;2023-02-17T07:30:16;95568.41;;;11.74;87.39
23363;BME280;11853;48.080;11.960;2023-02-17T07:32:42;95566.72;;;11.92;72.88
23363;BME280;11853;48.080;11.960;2023-02-17T07:35:09;95568.97;;;11.87;66.21
23363;BME280;11853;48.080;11.960;2023-02-17T07:37:35;95565.06;;;11.53;63.51
23363;BME280;11853;48.080;11.960;2023-02-17T07:40:00;95568.28;;;11.27;63.78
23363;BME280;11853;48.080;11.960;2023-02-17T07:42:27;95579.03;;;11.16;64.16
23363;BME280;11853;48.080;11.960;2023-02-17T07:44:52;95570.50;;;11.02;64.95
23363;BME280;11853;48.080;11.960;2023-02-17T07:47:18;95577.31;;;10.95;64.69
23363;BME280;11853;48.080;11.960;2023-02-17T07:49:44;95570.19;;;10.96;64.57
23363;BME280;11853;48.080;11.960;2023-02-17T07:52:10;95581.94;;;10.93;64.36
23363;BME280;11853;48.080;11.960;2023-02-17T07:54:36;95577.03;;;10.98;63.93
23363;BME280;11853;48.080;11.960;2023-02-17T07:57:01;95572.84;;;10.96;63.55
23363;BME280;11853;48.080;11.960;2023-02-17T07:59:27;95576.63;;;10.93;63.96
23363;BME280;11853;48.080;11.960;2023-02-17T08:01:53;95575.66;;;10.94;64.00
23363;BME280;11853;48.080;11.960;2023-02-17T08:04:19;95579.13;;;10.95;64.19
23363;BME280;11853;48.080;11.960;2023-02-17T08:06:44;95581.50;;;10.98;64.15
23363;BME280;11853;48.080;11.960;2023-02-17T08:09:11;95579.84;;;10.97;64.78
23363;BME280;11853;48.080;11.960;2023-02-17T08:11:55;95576.34;;;10.96;65.21
23363;BME280;11853;48.080;11.960;2023-02-17T08:14:38;95585.16;;;10.97;65.12
23363;BME280;11853;48.080;11.960;2023-02-17T08:17:05;95589.91;;;11.03;65.65
23363;BME280;11853;48.080;11.960;2023-02-17T08:19:32;95586.59;;;11.11;65.29
23363;BME280;11853;48.080;11.960;2023-02-17T08:21:57;95584.59;;;11.13;65.21
23363;BME280;11853;48.080;11.960;2023-02-17T08:24:23;95587.41;;;11.21;64.68
23363;BME280;11853;48.080;11.960;2023-02-17T08:26:50;95581.16;;;11.22;64.81
23363;BME280;11853;48.080;11.960;2023-02-17T08:29:16;95574.56;;;11.26;65.24
23363;BME280;11853;48.080;11.960;2023-02-17T08:31:42;95574.69;;;11.24;65.62
23363;BME280;11853;48.080;11.960;2023-02-17T08:34:09;95584.50;;;11.34;66.05
23363;BME280;11853;48.080;11.960;2023-02-17T08:36:35;95576.69;;;11.42;66.81
23363;BME280;11853;48.080;11.960;2023-02-17T08:39:03;95582.13;;;11.40;69.19
23363;BME280;11853;48.080;11.960;2023-02-17T08:41:34;95582.13;;;11.40;71.64
23363;BME280;11853;48.080;11.960;2023-02-17T08:44:03;95573.59;;;11.46;69.58
23363;BME280;11853;48.080;11.960;2023-02-17T08:46:30;95570.53;;;11.51;68.47
23363;BME280;11853;48.080;11.960;2023-02-17T08:48:57;95584.63;;;11.71;68.02
23363;BME280;11853;48.080;11.960;2023-02-17T08:51:23;95571.88;;;11.84;66.73
23363;BME280;11853;48.080;11.960;2023-02-17T08:53:52;95588.28;;;11.89;66.98
23363;BME280;11853;48.080;11.960;2023-02-17T08:56:19;95579.34;;;11.90;66.90
23363;BME280;11853;48.080;11.960;2023-02-17T08:58:45;95587.56;;;11.87;66.27
23363;BME280;11853;48.080;11.960;2023-02-17T09:01:11;95597.25;;;11.88;66.42
23363;BME280;11853;48.080;11.960;2023-02-17T09:03:37;95592.47;;;11.92;66.65
23363;BME280;11853;48.080;11.960;2023-02-17T09:06:04;95588.28;;;11.99;67.58
23363;BME280;11853;48.080;11.960;2023-02-17T09:08:30;95603.53;;;11.97;68.94
23363;BME280;11853;48.080;11.960;2023-02-17T09:10:56;95588.28;;;11.89;68.94
23363;BME280;11853;48.080;11.960;2023-02-17T09:13:22;95586.59;;;11.88;67.70
23363;BME280;11853;48.080;11.960;2023-02-17T09:15:48;95587.81;;;11.84;67.06
23363;BME280;11853;48.080;11.960;2023-02-17T09:18:14;95600.44;;;11.92;66.70
23363;BME280;11853;48.080;11.960;2023-02-17T09:20:40;95599.75;;;12.00;68.36
23363;BME280;11853;48.080;11.960;2023-02-17T09:23:06;95597.75;;;12.02;68.73
23363;BME280;11853;48.080;11.960;2023-02-17T09:25:32;95594.97;;;12.03;68.48
23363;BME280;11853;48.080;11.960;2023-02-17T09:27:58;95597.34;;;12.06;67.32
23363;BME280;11853;48.080;11.960;2023-02-17T09:30:24;95604.78;;;12.03;67.89
23363;BME280;11853;48.080;11.960;2023-02-17T09:32:50;95611.06;;;12.02;68.28
23363;BME280;11853;48.080;11.960;2023-02-17T09:35:17;95616.38;;;12.02;69.63
23363;BME280;11853;48.080;11.960;2023-02-17T09:37:44;95620.31;;;11.98;71.98
23363;BME280;11853;48.080;11.960;2023-02-17T09:40:18;95620.31;;;11.98;73.80
23363;BME280;11853;48.080;11.960;2023-02-17T09:42:44;95632.22;;;11.93;74.15
23363;BME280;11853;48.080;11.960;2023-02-17T09:45:21;95627.19;;;11.90;74.59
23363;BME280;11853;48.080;11.960;2023-02-17T09:47:57;95617.94;;;11.85;74.96
23363;BME280;11853;48.080;11.960;2023-02-17T09:50:54;95612.50;;;11.86;75.36
23363;BME280;11853;48.080;11.960;2023-02-17T09:53:35;95609.84;;;11.86;76.67
23363;BME280;11853;48.080;11.960;2023-02-17T09:56:04;95620.88;;;11.91;75.09
23363;BME280;11853;48.080;11.960;2023-02-17T09:58:42;95619.91;;;11.92;75.51
23363;BME280;11853;48.080;11.960;2023-02-17T10:01:17;95616.00;;;11.97;74.91
23363;BME280;11853;48.080;11.960;2023-02-17T10:03:47;95610.94;;;12.03;73.98
23363;BME280;11853;48.080;11.960;2023-02-17T10:06:23;95607.97;;;12.06;72.63
23363;BME280;11853;48.080;11.960;2023-02-17T10:11:39;95606.44;;;12.13;72.36
23363;BME280;11853;48.080;11.960;2023-02-17T10:17:02;95590.28;;;12.34;70.42
23363;BME280;11853;48.080;11.960;2023-02-17T10:19:31;95600.63;;;12.37;70.38
23363;BME280;11853;48.080;11.960;2023-02-17T10:22:12;95600.81;;;12.26;70.56
23363;BME280;11853;48.080;11.960;2023-02-17T10:24:38;95601.91;;;12.33;70.57
23363;BME280;11853;48.080;11.960;2023-02-17T10:27:25;95592.19;;;12.52;70.77
23363;BME280;11853;48.080;11.960;2023-02-17T10:33:02;95594.16;;;13.68;65.40
23363;BME280;11853;48.080;11.960;2023-02-17T10:35:51;95599.69;;;13.93;63.54
23363;BME280;11853;48.080;11.960;2023-02-17T10:38:40;95595.50;;;13.90;63.13
23363;BME280;11853;48.080;11.960;2023-02-17T10:41:12;95601.69;;;13.91;63.01
23363;BME280;11853;48.080;11.960;2023-02-17T10:43:41;95603.56;;;13.98;63.14
23363;BME280;11853;48.080;11.960;2023-02-17T10:46:10;95594.66;;;13.90;62.65
23363;BME280;11853;48.080;11.960;2023-02-17T10:48:44;95581.94;;;13.84;63.08
23363;BME280;11853;48.080;11.960;2023-02-17T10:51:15;95588.75;;;13.78;62.69
23363;BME280;11853;48.080;11.960;2023-02-17T10:53:44;95592.63;;;13.66;64.04
23363;BME280;11853;48.080;11.960;2023-02-17T10:56:53;95591.25;;;13.62;63.51
23363;BME280;11853;48.080;11.960;2023-02-17T11:01:31;95585.31;;;13.50;63.91
23363;BME280;11853;48.080;11.960;2023-02-17T11:04:00;95589.69;;;13.51;64.82
23363;BME280;11853;48.080;11.960;2023-02-17T11:06:30;95589.44;;;13.62;63.50
23363;BME280;11853;48.080;11.960;2023-02-17T11:09:01;95568.22;;;13.79;63.50
23363;BME280;11853;48.080;11.960;2023-02-17T11:11:30;95566.91;;;14.01;62.01
23363;BME280;11853;48.080;11.960;2023-02-17T11:16:37;95555.59;;;14.59;60.05
23363;BME280;11853;48.080;11.960;2023-02-17T11:19:06;95554.66;;;14.76;59.02
23363;BME280;11853;48.080;11.960;2023-02-17T11:21:44;95565.72;;;14.81;58.76
23363;BME280;11853;48.080;11.960;2023-02-17T11:24:11;95558.97;;;15.12;57.81
23363;BME280;11853;48.080;11.960;2023-02-17T11:26:37;95554.31;;;15.30;58.19
23363;BME280;11853;48.080;11.960;2023-02-17T11:29:16;95544.59;;;15.13;56.59
23363;BME280;11853;48.080;11.960;2023-02-17T11:31:54;95560.59;;;14.88;57.33
23363;BME280;11853;48.080;11.960;2023-02-17T11:34:23;95568.16;;;14.67;57.50
23363;BME280;11853;48.080;11.960;2023-02-17T11:39:42;95568.22;;;14.49;59.48
23363;BME280;11853;48.080;11.960;2023-02-17T11:42:26;95553.72;;;14.51;58.28
23363;BME280;11853;48.080;11.960;2023-02-17T11:44:53;95547.63;;;14.41;58.54
23363;BME280;11853;48.080;11.960;2023-02-17T11:47:41;95568.53;;;14.46;59.75
23363;BME280;11853;48.080;11.960;2023-02-17T11:50:38;95528.06;;;14.58;58.96
23363;BME280;11853;48.080;11.960;2023-02-17T11:56:08;95528.69;;;14.52;59.24
23363;BME280;11853;48.080;11.960;2023-02-17T11:59:00;95537.69;;;14.51;59.43
23363;BME280;11853;48.080;11.960;2023-02-17T12:02:00;95540.00;;;14.46;60.03
23363;BME280;11853;48.080;11.960;2023-02-17T12:14:57;95516.19;;;14.27;60.81
23363;BME280;11853;48.080;11.960;2023-02-17T12:17:54;95528.84;;;14.25;61.27
23363;BME280;11853;48.080;11.960;2023-02-17T12:31:18;95506.59;;;14.42;62.14
23363;BME280;11853;48.080;11.960;2023-02-17T12:36:49;95507.84;;;14.56;61.49
23363;BME280;11853;48.080;11.960;2023-02-17T12:39:28;95498.44;;;14.86;60.38
23363;BME280;11853;48.080;11.960;2023-02-17T12:42:10;95497.09;;;14.90;60.53
23363;BME280;11853;48.080;11.960;2023-02-17T12:44:49;95503.09;;;14.84;59.76
23363;BME280;11853;48.080;11.960;2023-02-17T12:47:30;95508.97;;;14.96;59.64
23363;BME280;11853;48.080;11.960;2023-02-17T12:50:03;95503.97;;;14.93;60.14
23363;BME280;11853;48.080;11.960;2023-02-17T12:52:39;95504.44;;;14.80;63.51
23363;BME280;11853;48.080;11.960;2023-02-17T13:00:22;95498.34;;;14.61;66.33
23363;BME280;11853;48.080;11.960;2023-02-17T13:02:49;95488.56;;;14.44;64.53
23363;BME280;11853;48.080;11.960;2023-02-17T13:05:21;95495.94;;;14.50;63.95
23363;BME280;11853;48.080;11.960;2023-02-17T13:07:58;95483.16;;;14.54;63.09
23363;BME280;11853;48.080;11.960;2023-02-17T13:13:03;95496.66;;;14.52;63.51
23363;BME280;11853;48.080;11.960;2023-02-17T13:15:43;95489.41;;;14.45;63.14
23363;BME280;11853;48.080;11.960;2023-02-17T13:18:34;95499.91;;;14.38;63.50
23363;BME280;11853;48.080;11.960;2023-02-17T13:24:05;95496.81;;;14.16;64.40
23363;BME280;11853;48.080;11.960;2023-02-17T13:26:38;95499.31;;;14.18;64.89
23363;BME280;11853;48.080;11.960;2023-02-17T13:29:17;95491.75;;;14.13;64.89
23363;BME280;11853;48.080;11.960;2023-02-17T13:31:55;95499.44;;;14.08;64.46
23363;BME280;11853;48.080;11.960;2023-02-17T13:34:37;95500.41;;;14.07;65.44
23363;BME280;11853;48.080;11.960;2023-02-17T13:37:25;95506.38;;;14.01;67.19
23363;BME280;11853;48.080;11.960;2023-02-17T13:40:35;95507.69;;;13.97;66.30
23363;BME280;11853;48.080;11.960;2023-02-17T13:43:09;95505.34;;;13.94;66.28
23363;BME280;11853;48.080;11.960;2023-02-17T13:45:48;95504.97;;;13.89;66.72
23363;BME280;11853;48.080;11.960;2023-02-17T13:50:48;95509.34;;;13.72;67.48
23363;BME280;11853;48.080;11.960;2023-02-17T13:53:38;95505.47;;;13.66;68.56
23363;BME280;11853;48.080;11.960;2023-02-17T13:56:26;95507.13;;;13.67;67.94
23363;BME280;11853;48.080;11.960;2023-02-17T13:58:53;95505.84;;;13.71;68.29
23363;BME280;11853;48.080;11.960;2023-02-17T14:01:25;95508.22;;;13.74;68.41
23363;BME280;11853;48.080;11.960;2023-02-17T14:03:54;95504.66;;;13.66;69.27
23363;BME280;11853;48.080;11.960;2023-02-17T14:06:31;95505.03;;;13.71;68.71
23363;BME280;11853;48.080;11.960;2023-02-17T14:08:57;95508.00;;;13.68;69.53
23363;BME280;11853;48.080;11.960;2023-02-17T14:11:26;95503.81;;;13.65;70.74
23363;BME280;11853;48.080;11.960;2023-02-17T14:13:55;95501.47;;;13.62;69.73
23363;BME280;11853;48.080;11.960;2023-02-17T14:19:09;95509.97;;;13.66;69.81
23363;BME280;11853;48.080;11.960;2023-02-17T14:21:58;95514.47;;;13.65;70.34
23363;BME280;11853;48.080;11.960;2023-02-17T14:24:26;95522.09;;;13.60;70.40
23363;BME280;11853;48.080;11.960;2023-02-17T14:27:07;95525.53;;;13.52;72.54
23363;BME280;11853;48.080;11.960;2023-02-17T14:29:44;95529.34;;;13.50;79.08
23363;BME280;11853;48.080;11.960;2023-02-17T14:32:35;95532.94;;;13.41;80.36
23363;BME280;11853;48.080;11.960;2023-02-17T14:35:22;95539.06;;;13.23;82.51